sensor_id;sensor_type;location;lat;lon;timestamp;temperature;humidity
68051;DHT22;54839;51.364;7.246;2023-07-24T00:01:06;18.00;99.90
68051;DHT22;54839;51.364;7.246;2023-07-24T00:03:32;18.00;99.90
68051;DHT22;54839;51.364;7.246;2023-07-24T00:05:58;18.00;99.90
68051;DHT22;54839;51.364;7.246;2023-07-24T00:08:24;18.00;99.90
68051;DHT22;54839;51.364;7.246;2023-07-24T00:10:50;18.00;99.90
68051;DHT22;54839;51.364;7.246;2023-07-24T00:13:16;18.00;99.90
68051;DHT22;54839;51.364;7.246;2023-07-24T00:15:41;18.00;99.90
68051;DHT22;54839;51.364;7.246;2023-07-24T00:18:07;17.90;99.90
68051;DHT22;54839;51.364;7.246;2023-07-24T00:20:33;17.90;99.90
68051;DHT22;54839;51.364;7.246;2023-07-24T00:22:58;17.70;99.90
68051;DHT22;54839;51.364;7.246;2023-07-24T00:25:24;17.80;99.90
68051;DHT22;54839;51.364;7.246;2023-07-24T00:27:50;17.80;99.90
68051;DHT22;54839;51.364;7.246;2023-07-24T00:30:15;17.90;99.90
68051;DHT22;54839;51.364;7.246;2023-07-24T00:32:41;17.80;99.90
68051;DHT22;54839;51.364;7.246;2023-07-24T00:35:07;17.80;99.90
68051;DHT22;54839;51.364;7.246;2023-07-24T00:37:33;17.70;99.90
68051;DHT22;54839;51.364;7.246;2023-07-24T00:39:58;17.70;99.90
68051;DHT22;54839;51.364;7.246;2023-07-24T00:42:24;17.60;99.90
68051;DHT22;54839;51.364;7.246;2023-07-24T00:44:50;17.60;99.90
68051;DHT22;54839;51.364;7.246;2023-07-24T00:47:16;17.60;99.90
68051;DHT22;54839;51.364;7.246;2023-07-24T00:49:42;17.60;99.90
68051;DHT22;54839;51.364;7.246;2023-07-24T00:52:08;17.60;99.90
68051;DHT22;54839;51.364;7.246;2023-07-24T00:54:34;17.60;99.90
68051;DHT22;54839;51.364;7.246;2023-07-24T00:57:01;17.50;99.90
68051;DHT22;54839;51.364;7.246;2023-07-24T00:59:27;17.50;99.90
68051;DHT22;54839;51.364;7.246;2023-07-24T01:01:52;17.50;99.90
68051;DHT22;54839;51.364;7.246;2023-07-24T01:04:18;17.50;99.90
68051;DHT22;54839;51.364;7.246;2023-07-24T01:06:45;17.50;99.90
68051;DHT22;54839;51.364;7.246;2023-07-24T01:09:10;17.50;99.90
68051;DHT22;54839;51.364;7.246;2023-07-24T01:11:40;17.60;99.90
68051;DHT22;54839;51.364;7.246;2023-07-24T01:14:22;17.60;99.90
68051;DHT22;54839;51.364;7.246;2023-07-24T01:16:49;17.60;99.90
68051;DHT22;54839;51.364;7.246;2023-07-24T01:19:57;17.70;99.90
68051;DHT22;54839;51.364;7.246;2023-07-24T01:22:46;17.70;99.90
68051;DHT22;54839;51.364;7.246;2023-07-24T01:25:32;17.50;99.90
68051;DHT22;54839;51.364;7.246;2023-07-24T01:28:00;17.40;99.90
68051;DHT22;54839;51.364;7.246;2023-07-24T01:30:26;17.40;99.90
68051;DHT22;54839;51.364;7.246;2023-07-24T01:32:52;17.30;99.90
68051;DHT22;54839;51.364;7.246;2023-07-24T01:35:18;17.30;99.90
68051;DHT22;54839;51.364;7.246;2023-07-24T01:37:45;17.30;99.90
68051;DHT22;54839;51.364;7.246;2023-07-24T01:40:12;17.30;99.90
68051;DHT22;54839;51.364;7.246;2023-07-24T01:42:39;17.30;99.90
68051;DHT22;54839;51.364;7.246;2023-07-24T01:45:05;17.40;99.90
68051;DHT22;54839;51.364;7.246;2023-07-24T01:47:32;17.40;99.90
68051;DHT22;54839;51.364;7.246;2023-07-24T01:49:58;17.50;99.90
68051;DHT22;54839;51.364;7.246;2023-07-24T01:52:23;17.60;99.90
68051;DHT22;54839;51.364;7.246;2023-07-24T01:54:49;17.60;99.90
68051;DHT22;54839;51.364;7.246;2023-07-24T01:57:15;17.60;99.90
68051;DHT22;54839;51.364;7.246;2023-07-24T01:59:41;17.50;99.90
68051;DHT22;54839;51.364;7.246;2023-07-24T02:02:06;17.60;99.90
68051;DHT22;54839;51.364;7.246;2023-07-24T02:04:32;17.50;99.90
68051;DHT22;54839;51.364;7.246;2023-07-24T02:06:58;17.50;99.90
68051;DHT22;54839;51.364;7.246;2023-07-24T02:09:23;17.50;99.90
68051;DHT22;54839;51.364;7.246;2023-07-24T02:11:49;17.40;99.90
68051;DHT22;54839;51.364;7.246;2023-07-24T02:14:17;17.40;99.90
68051;DHT22;54839;51.364;7.246;2023-07-24T02:16:44;17.30;99.90
68051;DHT22;54839;51.364;7.246;2023-07-24T02:19:09;17.30;99.90
68051;DHT22;54839;51.364;7.246;2023-07-24T02:21:35;17.30;99.90
68051;DHT22;54839;51.364;7.246;2023-07-24T02:24:00;17.30;99.90
68051;DHT22;54839;51.364;7.246;2023-07-24T02:26:26;17.40;99.90
68051;DHT22;54839;51.364;7.246;2023-07-24T02:28:51;17.30;99.90
68051;DHT22;54839;51.364;7.246;2023-07-24T02:31:19;17.40;99.90
68051;DHT22;54839;51.364;7.246;2023-07-24T02:33:45;17.30;99.90
68051;DHT22;54839;51.364;7.246;2023-07-24T02:36:10;17.30;99.90
68051;DHT22;54839;51.364;7.246;2023-07-24T02:38:36;17.50;99.90
68051;DHT22;54839;51.364;7.246;2023-07-24T02:41:02;17.50;99.90
68051;DHT22;54839;51.364;7.246;2023-07-24T02:43:28;17.40;99.90
68051;DHT22;54839;51.364;7.246;2023-07-24T02:45:53;17.50;99.90
68051;DHT22;54839;51.364;7.246;2023-07-24T02:48:19;17.60;99.90
68051;DHT22;54839;51.364;7.246;2023-07-24T02:50:47;17.60;99.90
68051;DHT22;54839;51.364;7.246;2023-07-24T02:53:13;17.70;99.90
68051;DHT22;54839;51.364;7.246;2023-07-24T02:55:42;17.70;99.90
68051;DHT22;54839;51.364;7.246;2023-07-24T02:58:08;17.80;99.90
68051;DHT22;54839;51.364;7.246;2023-07-24T03:00:34;17.80;99.90
68051;DHT22;54839;51.364;7.246;2023-07-24T03:03:00;17.90;99.90
68051;DHT22;54839;51.364;7.246;2023-07-24T03:05:25;17.90;99.90
68051;DHT22;54839;51.364;7.246;2023-07-24T03:07:51;17.90;99.90
68051;DHT22;54839;51.364;7.246;2023-07-24T03:10:16;17.90;99.90
68051;DHT22;54839;51.364;7.246;2023-07-24T03:12:42;17.90;99.90
68051;DHT22;54839;51.364;7.246;2023-07-24T03:15:08;17.70;99.90
68051;DHT22;54839;51.364;7.246;2023-07-24T03:17:34;17.80;99.90
68051;DHT22;54839;51.364;7.246;2023-07-24T03:20:12;17.70;99.90
68051;DHT22;54839;51.364;7.246;2023-07-24T03:22:38;17.70;99.90
68051;DHT22;54839;51.364;7.246;2023-07-24T03:25:05;17.70;99.90
68051;DHT22;54839;51.364;7.246;2023-07-24T03:27:31;17.60;99.90
68051;DHT22;54839;51.364;7.246;2023-07-24T03:29:57;17.70;99.90
68051;DHT22;54839;51.364;7.246;2023-07-24T03:32:22;17.70;99.90
68051;DHT22;54839;51.364;7.246;2023-07-24T03:34:48;17.60;99.90
68051;DHT22;54839;51.364;7.246;2023-07-24T03:37:14;17.70;99.90
68051;DHT22;54839;51.364;7.246;2023-07-24T03:39:39;17.60;99.90
68051;DHT22;54839;51.364;7.246;2023-07-24T03:42:05;17.60;99.90
68051;DHT22;54839;51.364;7.246;2023-07-24T03:44:31;17.50;99.90
68051;DHT22;54839;51.364;7.246;2023-07-24T03:46:56;17.50;99.90
68051;DHT22;54839;51.364;7.246;2023-07-24T03:49:22;17.50;99.90
68051;DHT22;54839;51.364;7.246;2023-07-24T03:51:48;17.50;99.90
68051;DHT22;54839;51.364;7.246;2023-07-24T03:54:13;17.60;99.90
68051;DHT22;54839;51.364;7.246;2023-07-24T03:56:39;17.50;99.90
68051;DHT22;54839;51.364;7.246;2023-07-24T03:59:06;17.60;99.90
68051;DHT22;54839;51.364;7.246;2023-07-24T04:01:31;17.60;99.90
68051;DHT22;54839;51.364;7.246;2023-07-24T04:03:58;17.70;99.90
68051;DHT22;54839;51.364;7.246;2023-07-24T04:06:24;17.60;99.90
68051;DHT22;54839;51.364;7.246;2023-07-24T04:08:50;17.70;99.90
68051;DHT22;54839;51.364;7.246;2023-07-24T04:11:15;17.60;99.90
68051;DHT22;54839;51.364;7.246;2023-07-24T04:13:41;17.60;99.90
68051;DHT22;54839;51.364;7.246;2023-07-24T04:16:06;17.70;99.90
68051;DHT22;54839;51.364;7.246;2023-07-24T04:18:32;17.70;99.90
68051;DHT22;54839;51.364;7.246;2023-07-24T04:20:58;17.60;99.90
68051;DHT22;54839;51.364;7.246;2023-07-24T04:23:23;17.70;99.90
68051;DHT22;54839;51.364;7.246;2023-07-24T04:25:50;17.80;99.90
68051;DHT22;54839;51.364;7.246;2023-07-24T04:28:15;17.70;99.90
68051;DHT22;54839;51.364;7.246;2023-07-24T04:30:41;17.90;99.90
68051;DHT22;54839;51.364;7.246;2023-07-24T04:33:06;17.90;99.90
68051;DHT22;54839;51.364;7.246;2023-07-24T04:35:32;17.90;99.90
68051;DHT22;54839;51.364;7.246;2023-07-24T04:37:59;17.90;99.90
68051;DHT22;54839;51.364;7.246;2023-07-24T04:40:24;17.90;99.90
68051;DHT22;54839;51.364;7.246;2023-07-24T04:42:50;17.90;99.90
68051;DHT22;54839;51.364;7.246;2023-07-24T04:45:16;17.80;99.90
68051;DHT22;54839;51.364;7.246;2023-07-24T04:47:41;17.90;99.90
68051;DHT22;54839;51.364;7.246;2023-07-24T04:50:07;17.90;99.90
68051;DHT22;54839;51.364;7.246;2023-07-24T04:52:33;17.90;99.90
68051;DHT22;54839;51.364;7.246;2023-07-24T04:54:59;17.90;99.90
68051;DHT22;54839;51.364;7.246;2023-07-24T04:57:24;17.90;99.90
68051;DHT22;54839;51.364;7.246;2023-07-24T04:59:50;18.00;99.90
68051;DHT22;54839;51.364;7.246;2023-07-24T05:02:16;17.90;99.90
68051;DHT22;54839;51.364;7.246;2023-07-24T05:04:41;18.00;99.90
68051;DHT22;54839;51.364;7.246;2023-07-24T05:07:07;18.00;99.90
68051;DHT22;54839;51.364;7.246;2023-07-24T05:09:33;18.10;99.90
68051;DHT22;54839;51.364;7.246;2023-07-24T05:11:58;18.00;99.90
68051;DHT22;54839;51.364;7.246;2023-07-24T05:14:24;18.00;99.90
68051;DHT22;54839;51.364;7.246;2023-07-24T05:16:50;17.80;99.90
68051;DHT22;54839;51.364;7.246;2023-07-24T05:19:15;17.80;99.90
68051;DHT22;54839;51.364;7.246;2023-07-24T05:21:41;17.60;99.90
68051;DHT22;54839;51.364;7.246;2023-07-24T05:24:06;17.60;99.90
68051;DHT22;54839;51.364;7.246;2023-07-24T05:26:32;17.80;99.90
68051;DHT22;54839;51.364;7.246;2023-07-24T05:28:58;17.90;99.90
68051;DHT22;54839;51.364;7.246;2023-07-24T05:31:23;17.90;99.90
68051;DHT22;54839;51.364;7.246;2023-07-24T05:33:49;17.90;99.90
68051;DHT22;54839;51.364;7.246;2023-07-24T05:36:14;17.90;99.90
68051;DHT22;54839;51.364;7.246;2023-07-24T05:38:40;17.90;99.90
68051;DHT22;54839;51.364;7.246;2023-07-24T05:41:06;18.00;99.90
68051;DHT22;54839;51.364;7.246;2023-07-24T05:43:31;18.00;99.90
68051;DHT22;54839;51.364;7.246;2023-07-24T05:45:58;17.80;99.90
68051;DHT22;54839;51.364;7.246;2023-07-24T05:48:24;17.80;99.90
68051;DHT22;54839;51.364;7.246;2023-07-24T05:50:50;17.70;99.90
68051;DHT22;54839;51.364;7.246;2023-07-24T05:53:16;17.60;99.90
68051;DHT22;54839;51.364;7.246;2023-07-24T05:55:42;17.50;99.90
68051;DHT22;54839;51.364;7.246;2023-07-24T05:58:09;17.60;99.90
68051;DHT22;54839;51.364;7.246;2023-07-24T06:00:35;17.60;99.90
68051;DHT22;54839;51.364;7.246;2023-07-24T06:03:02;17.60;99.90
68051;DHT22;54839;51.364;7.246;2023-07-24T06:05:28;17.60;99.90
68051;DHT22;54839;51.364;7.246;2023-07-24T06:07:54;17.60;99.90
68051;DHT22;54839;51.364;7.246;2023-07-24T06:10:19;17.70;99.90
68051;DHT22;54839;51.364;7.246;2023-07-24T06:12:45;17.80;99.90
68051;DHT22;54839;51.364;7.246;2023-07-24T06:15:11;17.90;99.90
68051;DHT22;54839;51.364;7.246;2023-07-24T06:17:37;17.60;99.90
68051;DHT22;54839;51.364;7.246;2023-07-24T06:20:02;17.60;99.90
68051;DHT22;54839;51.364;7.246;2023-07-24T06:22:28;17.70;99.90
68051;DHT22;54839;51.364;7.246;2023-07-24T06:24:53;17.90;99.90
68051;DHT22;54839;51.364;7.246;2023-07-24T06:27:20;18.10;99.90
68051;DHT22;54839;51.364;7.246;2023-07-24T06:29:46;18.30;99.90
68051;DHT22;54839;51.364;7.246;2023-07-24T06:32:11;18.30;99.90
68051;DHT22;54839;51.364;7.246;2023-07-24T06:34:37;18.30;99.90
68051;DHT22;54839;51.364;7.246;2023-07-24T06:37:03;18.50;99.90
68051;DHT22;54839;51.364;7.246;2023-07-24T06:39:28;18.70;99.90
68051;DHT22;54839;51.364;7.246;2023-07-24T06:41:54;18.80;99.90
68051;DHT22;54839;51.364;7.246;2023-07-24T06:44:21;18.60;99.90
68051;DHT22;54839;51.364;7.246;2023-07-24T06:46:47;18.90;99.90
68051;DHT22;54839;51.364;7.246;2023-07-24T06:49:12;18.80;99.90
68051;DHT22;54839;51.364;7.246;2023-07-24T06:51:38;18.90;99.90
68051;DHT22;54839;51.364;7.246;2023-07-24T06:54:04;19.20;99.90
68051;DHT22;54839;51.364;7.246;2023-07-24T06:56:30;19.20;99.90
68051;DHT22;54839;51.364;7.246;2023-07-24T06:58:56;19.20;99.90
68051;DHT22;54839;51.364;7.246;2023-07-24T07:01:22;19.40;99.90
68051;DHT22;54839;51.364;7.246;2023-07-24T07:03:47;19.30;99.90
68051;DHT22;54839;51.364;7.246;2023-07-24T07:06:13;19.40;99.90
68051;DHT22;54839;51.364;7.246;2023-07-24T07:08:39;19.60;99.90
68051;DHT22;54839;51.364;7.246;2023-07-24T07:11:04;19.70;99.90
68051;DHT22;54839;51.364;7.246;2023-07-24T07:13:30;19.80;99.90
68051;DHT22;54839;51.364;7.246;2023-07-24T07:15:56;19.80;99.90
68051;DHT22;54839;51.364;7.246;2023-07-24T07:18:22;20.00;99.90
68051;DHT22;54839;51.364;7.246;2023-07-24T07:20:52;19.90;99.90
68051;DHT22;54839;51.364;7.246;2023-07-24T07:23:18;19.90;99.90
68051;DHT22;54839;51.364;7.246;2023-07-24T07:25:44;20.00;99.90
68051;DHT22;54839;51.364;7.246;2023-07-24T07:28:14;19.90;99.90
68051;DHT22;54839;51.364;7.246;2023-07-24T07:30:40;19.70;99.90
68051;DHT22;54839;51.364;7.246;2023-07-24T07:33:06;19.60;99.90
68051;DHT22;54839;51.364;7.246;2023-07-24T07:35:33;19.80;99.90
68051;DHT22;54839;51.364;7.246;2023-07-24T07:37:59;19.80;99.90
68051;DHT22;54839;51.364;7.246;2023-07-24T07:40:25;19.90;99.90
68051;DHT22;54839;51.364;7.246;2023-07-24T07:42:52;19.90;99.90
68051;DHT22;54839;51.364;7.246;2023-07-24T07:45:19;19.90;99.90
68051;DHT22;54839;51.364;7.246;2023-07-24T07:47:44;19.90;99.90
68051;DHT22;54839;51.364;7.246;2023-07-24T07:50:10;19.90;99.90
68051;DHT22;54839;51.364;7.246;2023-07-24T07:52:36;19.90;99.90
68051;DHT22;54839;51.364;7.246;2023-07-24T07:55:02;19.80;99.90
68051;DHT22;54839;51.364;7.246;2023-07-24T07:57:28;19.70;99.90
68051;DHT22;54839;51.364;7.246;2023-07-24T07:59:53;19.70;99.90
68051;DHT22;54839;51.364;7.246;2023-07-24T08:02:19;19.50;99.90
68051;DHT22;54839;51.364;7.246;2023-07-24T08:04:44;19.40;99.90
68051;DHT22;54839;51.364;7.246;2023-07-24T08:07:10;19.50;99.90
68051;DHT22;54839;51.364;7.246;2023-07-24T08:09:36;19.50;99.90
68051;DHT22;54839;51.364;7.246;2023-07-24T08:12:04;19.70;99.90
68051;DHT22;54839;51.364;7.246;2023-07-24T08:14:30;19.90;99.90
68051;DHT22;54839;51.364;7.246;2023-07-24T08:16:55;20.30;99.90
68051;DHT22;54839;51.364;7.246;2023-07-24T08:19:21;20.40;99.90
68051;DHT22;54839;51.364;7.246;2023-07-24T08:21:47;20.60;99.90
68051;DHT22;54839;51.364;7.246;2023-07-24T08:24:13;20.50;99.90
68051;DHT22;54839;51.364;7.246;2023-07-24T08:26:38;20.60;99.90
68051;DHT22;54839;51.364;7.246;2023-07-24T08:29:05;20.50;99.90
68051;DHT22;54839;51.364;7.246;2023-07-24T08:31:31;20.50;99.90
68051;DHT22;54839;51.364;7.246;2023-07-24T08:33:56;20.70;99.90
68051;DHT22;54839;51.364;7.246;2023-07-24T08:36:22;20.60;99.90
68051;DHT22;54839;51.364;7.246;2023-07-24T08:38:48;20.70;99.90
68051;DHT22;54839;51.364;7.246;2023-07-24T08:41:14;20.90;99.90
68051;DHT22;54839;51.364;7.246;2023-07-24T08:43:43;21.00;99.90
68051;DHT22;54839;51.364;7.246;2023-07-24T08:46:09;21.00;99.90
68051;DHT22;54839;51.364;7.246;2023-07-24T08:48:36;21.20;99.90
68051;DHT22;54839;51.364;7.246;2023-07-24T08:51:07;21.20;99.90
68051;DHT22;54839;51.364;7.246;2023-07-24T08:53:33;21.30;99.90
68051;DHT22;54839;51.364;7.246;2023-07-24T08:56:05;20.70;99.90
68051;DHT22;54839;51.364;7.246;2023-07-24T08:58:32;20.50;99.90
68051;DHT22;54839;51.364;7.246;2023-07-24T09:00:59;20.50;99.90
68051;DHT22;54839;51.364;7.246;2023-07-24T09:03:25;20.50;99.90
68051;DHT22;54839;51.364;7.246;2023-07-24T09:05:51;20.70;99.90
68051;DHT22;54839;51.364;7.246;2023-07-24T09:08:16;20.90;99.90
68051;DHT22;54839;51.364;7.246;2023-07-24T09:10:42;21.30;99.90
68051;DHT22;54839;51.364;7.246;2023-07-24T09:13:11;21.00;99.90
68051;DHT22;54839;51.364;7.246;2023-07-24T09:15:44;21.00;99.90
68051;DHT22;54839;51.364;7.246;2023-07-24T09:18:10;21.00;99.90
68051;DHT22;54839;51.364;7.246;2023-07-24T09:20:40;21.20;99.90
68051;DHT22;54839;51.364;7.246;2023-07-24T09:23:07;20.90;99.90
68051;DHT22;54839;51.364;7.246;2023-07-24T09:25:35;20.70;99.90
68051;DHT22;54839;51.364;7.246;2023-07-24T09:28:09;20.40;99.90
68051;DHT22;54839;51.364;7.246;2023-07-24T09:30:35;20.50;99.90
68051;DHT22;54839;51.364;7.246;2023-07-24T09:33:01;20.50;99.90
68051;DHT22;54839;51.364;7.246;2023-07-24T09:35:27;20.40;99.90
68051;DHT22;54839;51.364;7.246;2023-07-24T09:38:06;20.30;99.90
68051;DHT22;54839;51.364;7.246;2023-07-24T09:40:45;20.30;99.90
68051;DHT22;54839;51.364;7.246;2023-07-24T09:43:19;20.20;99.90
68051;DHT22;54839;51.364;7.246;2023-07-24T09:45:45;20.00;99.90
68051;DHT22;54839;51.364;7.246;2023-07-24T09:48:12;19.90;99.90
68051;DHT22;54839;51.364;7.246;2023-07-24T09:50:40;20.20;99.90
68051;DHT22;54839;51.364;7.246;2023-07-24T09:53:18;20.20;99.90
68051;DHT22;54839;51.364;7.246;2023-07-24T09:55:56;20.20;99.90
68051;DHT22;54839;51.364;7.246;2023-07-24T09:58:23;20.00;99.90
68051;DHT22;54839;51.364;7.246;2023-07-24T10:00:50;20.10;99.90
68051;DHT22;54839;51.364;7.246;2023-07-24T10:03:16;20.10;99.90
68051;DHT22;54839;51.364;7.246;2023-07-24T10:05:44;20.10;99.90
68051;DHT22;54839;51.364;7.246;2023-07-24T10:08:10;19.80;99.90
68051;DHT22;54839;51.364;7.246;2023-07-24T10:10:38;19.90;99.90
68051;DHT22;54839;51.364;7.246;2023-07-24T10:13:04;20.10;99.90
68051;DHT22;54839;51.364;7.246;2023-07-24T10:15:31;20.50;99.90
68051;DHT22;54839;51.364;7.246;2023-07-24T10:18:04;20.50;99.90
68051;DHT22;54839;51.364;7.246;2023-07-24T10:20:40;20.90;99.90
68051;DHT22;54839;51.364;7.246;2023-07-24T10:23:08;21.50;99.90
68051;DHT22;54839;51.364;7.246;2023-07-24T10:25:36;21.90;99.90
68051;DHT22;54839;51.364;7.246;2023-07-24T10:28:10;21.60;99.90
68051;DHT22;54839;51.364;7.246;2023-07-24T10:30:42;21.50;99.90
68051;DHT22;54839;51.364;7.246;2023-07-24T10:33:09;21.50;99.90
68051;DHT22;54839;51.364;7.246;2023-07-24T10:35:46;22.00;99.90
68051;DHT22;54839;51.364;7.246;2023-07-24T10:38:13;22.50;99.90
68051;DHT22;54839;51.364;7.246;2023-07-24T10:40:41;23.20;99.90
68051;DHT22;54839;51.364;7.246;2023-07-24T10:43:18;22.70;99.90
68051;DHT22;54839;51.364;7.246;2023-07-24T10:45:52;22.10;99.90
68051;DHT22;54839;51.364;7.246;2023-07-24T10:48:19;21.70;99.90
68051;DHT22;54839;51.364;7.246;2023-07-24T10:50:47;22.30;99.90
68051;DHT22;54839;51.364;7.246;2023-07-24T10:53:20;22.90;99.90
68051;DHT22;54839;51.364;7.246;2023-07-24T10:55:47;23.10;99.90
68051;DHT22;54839;51.364;7.246;2023-07-24T10:58:13;23.50;99.90
68051;DHT22;54839;51.364;7.246;2023-07-24T11:00:43;23.50;99.90
68051;DHT22;54839;51.364;7.246;2023-07-24T11:03:12;22.20;99.90
68051;DHT22;54839;51.364;7.246;2023-07-24T11:05:46;22.00;99.90
68051;DHT22;54839;51.364;7.246;2023-07-24T11:08:13;22.20;99.90
68051;DHT22;54839;51.364;7.246;2023-07-24T11:10:59;22.10;99.90
68051;DHT22;54839;51.364;7.246;2023-07-24T11:13:28;21.60;99.90
68051;DHT22;54839;51.364;7.246;2023-07-24T11:15:54;21.60;99.90
68051;DHT22;54839;51.364;7.246;2023-07-24T11:18:21;21.60;99.90
68051;DHT22;54839;51.364;7.246;2023-07-24T11:20:55;21.70;99.90
68051;DHT22;54839;51.364;7.246;2023-07-24T11:23:22;21.80;99.90
68051;DHT22;54839;51.364;7.246;2023-07-24T11:25:51;22.10;99.90
68051;DHT22;54839;51.364;7.246;2023-07-24T11:28:17;22.70;99.90
68051;DHT22;54839;51.364;7.246;2023-07-24T11:30:42;22.40;99.90
68051;DHT22;54839;51.364;7.246;2023-07-24T11:33:14;22.30;99.90
68051;DHT22;54839;51.364;7.246;2023-07-24T11:35:40;22.50;99.90
68051;DHT22;54839;51.364;7.246;2023-07-24T11:38:08;22.40;99.90
68051;DHT22;54839;51.364;7.246;2023-07-24T11:40:40;22.00;99.90
68051;DHT22;54839;51.364;7.246;2023-07-24T11:43:24;21.60;99.90
68051;DHT22;54839;51.364;7.246;2023-07-24T11:45:51;21.70;99.90
68051;DHT22;54839;51.364;7.246;2023-07-24T11:48:22;21.40;99.90
68051;DHT22;54839;51.364;7.246;2023-07-24T11:50:54;21.40;99.90
68051;DHT22;54839;51.364;7.246;2023-07-24T11:53:27;21.20;99.90
68051;DHT22;54839;51.364;7.246;2023-07-24T11:55:55;21.30;99.90
68051;DHT22;54839;51.364;7.246;2023-07-24T11:58:22;21.30;99.90
68051;DHT22;54839;51.364;7.246;2023-07-24T12:00:48;20.90;99.90
68051;DHT22;54839;51.364;7.246;2023-07-24T12:03:19;20.80;99.90
68051;DHT22;54839;51.364;7.246;2023-07-24T12:05:45;20.50;99.90
68051;DHT22;54839;51.364;7.246;2023-07-24T12:08:11;17.60;99.90
68051;DHT22;54839;51.364;7.246;2023-07-24T12:10:40;15.80;99.90
68051;DHT22;54839;51.364;7.246;2023-07-24T12:13:06;15.00;99.90
68051;DHT22;54839;51.364;7.246;2023-07-24T12:15:33;14.70;99.90
68051;DHT22;54839;51.364;7.246;2023-07-24T12:18:03;14.80;99.90
68051;DHT22;54839;51.364;7.246;2023-07-24T12:20:29;14.70;99.90
68051;DHT22;54839;51.364;7.246;2023-07-24T12:22:56;14.70;99.90
68051;DHT22;54839;51.364;7.246;2023-07-24T12:25:22;14.90;99.90
68051;DHT22;54839;51.364;7.246;2023-07-24T12:27:48;15.20;99.90
68051;DHT22;54839;51.364;7.246;2023-07-24T12:30:14;15.40;99.90
68051;DHT22;54839;51.364;7.246;2023-07-24T12:32:40;15.50;99.90
68051;DHT22;54839;51.364;7.246;2023-07-24T12:35:07;15.80;99.90
68051;DHT22;54839;51.364;7.246;2023-07-24T12:37:33;16.10;99.90
68051;DHT22;54839;51.364;7.246;2023-07-24T12:39:59;16.40;99.90
68051;DHT22;54839;51.364;7.246;2023-07-24T12:42:24;16.50;99.90
68051;DHT22;54839;51.364;7.246;2023-07-24T12:44:50;16.50;99.90
68051;DHT22;54839;51.364;7.246;2023-07-24T12:47:16;16.80;99.90
68051;DHT22;54839;51.364;7.246;2023-07-24T12:49:41;17.50;99.90
68051;DHT22;54839;51.364;7.246;2023-07-24T12:52:07;19.00;99.90
68051;DHT22;54839;51.364;7.246;2023-07-24T12:54:33;21.20;99.90
68051;DHT22;54839;51.364;7.246;2023-07-24T12:57:00;20.20;99.90
68051;DHT22;54839;51.364;7.246;2023-07-24T12:59:25;19.70;99.90
68051;DHT22;54839;51.364;7.246;2023-07-24T13:01:51;20.40;99.90
68051;DHT22;54839;51.364;7.246;2023-07-24T13:04:17;22.20;99.90
68051;DHT22;54839;51.364;7.246;2023-07-24T13:06:42;22.20;99.90
68051;DHT22;54839;51.364;7.246;2023-07-24T13:09:08;25.50;99.90
68051;DHT22;54839;51.364;7.246;2023-07-24T13:11:34;26.80;99.90
68051;DHT22;54839;51.364;7.246;2023-07-24T13:13:59;27.70;99.90
68051;DHT22;54839;51.364;7.246;2023-07-24T13:16:25;27.50;99.90
68051;DHT22;54839;51.364;7.246;2023-07-24T13:18:52;29.30;99.90
68051;DHT22;54839;51.364;7.246;2023-07-24T13:21:17;28.90;99.90
68051;DHT22;54839;51.364;7.246;2023-07-24T13:23:43;29.20;99.90
68051;DHT22;54839;51.364;7.246;2023-07-24T13:26:09;30.10;99.90
68051;DHT22;54839;51.364;7.246;2023-07-24T13:28:36;32.30;99.90
68051;DHT22;54839;51.364;7.246;2023-07-24T13:31:18;32.80;99.90
68051;DHT22;54839;51.364;7.246;2023-07-24T13:33:43;33.40;99.90
68051;DHT22;54839;51.364;7.246;2023-07-24T13:36:09;31.30;99.90
68051;DHT22;54839;51.364;7.246;2023-07-24T13:38:35;31.70;99.90
68051;DHT22;54839;51.364;7.246;2023-07-24T13:41:01;29.50;99.90
68051;DHT22;54839;51.364;7.246;2023-07-24T13:43:29;27.00;99.90
68051;DHT22;54839;51.364;7.246;2023-07-24T13:45:54;25.30;99.90
68051;DHT22;54839;51.364;7.246;2023-07-24T13:48:20;24.20;99.90
68051;DHT22;54839;51.364;7.246;2023-07-24T13:50:46;24.90;99.90
68051;DHT22;54839;51.364;7.246;2023-07-24T13:53:11;24.20;99.90
68051;DHT22;54839;51.364;7.246;2023-07-24T13:55:37;23.30;99.90
68051;DHT22;54839;51.364;7.246;2023-07-24T13:58:03;23.80;99.90
68051;DHT22;54839;51.364;7.246;2023-07-24T14:00:29;24.70;99.90
68051;DHT22;54839;51.364;7.246;2023-07-24T14:02:54;26.60;99.90
68051;DHT22;54839;51.364;7.246;2023-07-24T14:05:20;27.00;99.90
68051;DHT22;54839;51.364;7.246;2023-07-24T14:07:46;29.00;99.90
68051;DHT22;54839;51.364;7.246;2023-07-24T14:10:11;30.70;99.90
68051;DHT22;54839;51.364;7.246;2023-07-24T14:12:37;31.10;99.90
68051;DHT22;54839;51.364;7.246;2023-07-24T14:15:03;33.60;99.90
68051;DHT22;54839;51.364;7.246;2023-07-24T14:17:29;33.90;99.90
68051;DHT22;54839;51.364;7.246;2023-07-24T14:19:55;32.30;99.90
68051;DHT22;54839;51.364;7.246;2023-07-24T14:22:20;29.60;99.90
68051;DHT22;54839;51.364;7.246;2023-07-24T14:24:46;29.70;99.90
68051;DHT22;54839;51.364;7.246;2023-07-24T14:27:13;28.60;99.90
68051;DHT22;54839;51.364;7.246;2023-07-24T14:29:39;27.20;99.90
68051;DHT22;54839;51.364;7.246;2023-07-24T14:32:05;24.90;99.90
68051;DHT22;54839;51.364;7.246;2023-07-24T14:34:31;24.20;99.90
68051;DHT22;54839;51.364;7.246;2023-07-24T14:36:57;23.60;99.90
68051;DHT22;54839;51.364;7.246;2023-07-24T14:39:22;23.60;99.90
68051;DHT22;54839;51.364;7.246;2023-07-24T14:41:48;23.10;99.90
68051;DHT22;54839;51.364;7.246;2023-07-24T14:44:14;23.00;99.90
68051;DHT22;54839;51.364;7.246;2023-07-24T14:46:39;22.30;99.90
68051;DHT22;54839;51.364;7.246;2023-07-24T14:49:05;22.30;99.90
68051;DHT22;54839;51.364;7.246;2023-07-24T14:51:31;22.40;99.90
68051;DHT22;54839;51.364;7.246;2023-07-24T14:53:56;22.30;99.90
68051;DHT22;54839;51.364;7.246;2023-07-24T14:56:22;21.70;99.90
68051;DHT22;54839;51.364;7.246;2023-07-24T14:58:48;21.20;99.90
68051;DHT22;54839;51.364;7.246;2023-07-24T15:01:13;20.60;99.90
68051;DHT22;54839;51.364;7.246;2023-07-24T15:03:39;20.20;99.90
68051;DHT22;54839;51.364;7.246;2023-07-24T15:06:04;19.90;99.90
68051;DHT22;54839;51.364;7.246;2023-07-24T15:08:32;19.70;99.90
68051;DHT22;54839;51.364;7.246;2023-07-24T15:10:58;19.70;99.90
68051;DHT22;54839;51.364;7.246;2023-07-24T15:13:24;19.50;99.90
68051;DHT22;54839;51.364;7.246;2023-07-24T15:15:50;19.50;99.90
68051;DHT22;54839;51.364;7.246;2023-07-24T15:18:15;19.60;99.90
68051;DHT22;54839;51.364;7.246;2023-07-24T15:20:41;19.70;99.90
68051;DHT22;54839;51.364;7.246;2023-07-24T15:23:07;19.90;99.90
68051;DHT22;54839;51.364;7.246;2023-07-24T15:25:32;21.20;99.90
68051;DHT22;54839;51.364;7.246;2023-07-24T15:27:58;23.80;99.90